Station: Kangaroo Flats (Defence)  

  Atmospheric Gas Attenuation - ITU Rec 676-11   ----------------- dB/100km -----------------
Date Time Temp RH % AH g/m3 Dew Point Wind Direction Speed kph Gust kph Barometer mB Rainfall Since 9am 24GHz 47GHz 76GHz 122GHz 134GHz 241GHz
06/05 05:40 23.1 84 17.36 20.2 4 4 1013.1 0 37.7 37.8 71.3 188.6 205.1 711.9
06/05 05:30 23.4 82 17.24 20.2 4 6 1013.1 0 37.4 37.5 70.5 186.4 202.4 702.8
06/05 05:20 23.6 82 17.44 20.3 4 6 1013.1 0 37.8 37.8 71.2 188.4 204.9 711.4
06/05 05:10 23.9 81 17.52 20.4 6 7 1013.1 0 37.9 37.8 71.3 188.6 205.3 712.8
06/05 05:00 24.2 79 17.38 20.3 6 11 1013.1 0 37.6 37.4 70.4 186.1 202.4 702.7
06/05 04:50 24.2 79 17.38 20.3 6 7 1013.1 0 37.6 37.4 70.4 186.1 202.4 702.7
06/05 04:40 24.2 79 17.38 20.3 4 6 1013.1 0 37.6 37.4 70.4 186.1 202.4 702.7
06/05 04:30 24.1 80 17.5 20.4 6 9 1013.1 0 37.9 37.6 71.1 187.9 204.5 709.9
06/05 04:20 23.9 82 17.74 20.6 4 7 1013.1 0 38.4 38.2 72.4 191.3 208.6 724.4
06/05 04:10 24.2 80 17.6 20.5 4 4 1013.1 0 38.1 37.8 71.4 188.8 205.7 714.2
06/05 04:00 24.1 81 17.72 20.6 4 6 1013.1 0 38.3 38.0 72.1 190.6 207.8 721.5
06/05 03:50 24.4 81 18.03 20.9 4 6 1013.1 0 39.0 38.5 73.2 193.6 211.6 735.0
06/05 03:40 24.7 79 17.88 20.8 4 6 1013.1 0 38.6 38.1 72.2 191.0 208.5 724.2
06/05 03:30 24.7 79 17.88 20.8 4 7 1013.1 0 38.6 38.1 72.2 191.0 208.5 724.2
06/05 03:20 25 75 17.26 20.4 6 7 1013.1 0 37.3 36.8 69.1 182.8 198.5 689.2
06/05 03:10 25.1 75 17.36 20.5 6 9 1013.1 0 37.5 36.9 69.5 183.7 199.7 693.4
06/05 03:00 25 78 17.96 20.9 4 7 1013.1 0 38.8 38.1 72.3 191.3 208.9 725.5
06/05 02:50 24.8 81 18.44 21.3 4 4 1013.1 0 39.8 39.1 74.7 197.7 216.7 752.8
06/05 02:40 25 82 18.88 21.7 4 7 1013.1 0 40.7 39.8 76.6 202.7 222.9 774.2
06/05 02:30 24.9 81 18.54 21.4 4 7 1013.1 0 40.0 39.2 75.1 198.7 218.0 757.1
06/05 02:20 25.2 79 18.39 21.3 6 6 1013.1 0 39.6 38.8 74.1 196.0 214.8 746.2
06/05 02:10 25.3 82 19.2 22 4 4 1013.1 0 41.4 40.3 77.8 205.9 226.9 788.3
06/05 02:00 25.4 81 19.07 21.9 4 7 1013.1 0 41.1 40.0 77.1 204.0 224.6 780.3
06/05 01:50 26.1 77 18.85 21.7 2 4 1013.1 0 40.5 39.2 75.4 199.4 219.2 761.5
06/05 01:40 25.7 81 19.39 22.2 6 7 1013.1 0 41.7 40.4 78.3 207.2 228.6 794.3
06/05 01:30 24.6 94 21.16 23.6 4 7 1013.1 0 45.6 44.5 88.2 233.4 260.4 904.7
06/05 01:20 24.4 98 21.81 24 4 4 1013.1 0 47.0 45.9 91.7 242.8 271.9 944.5
06/05 01:10 24.4 98 21.81 24 0 0 1013.1 0 47.0 45.9 91.7 242.8 271.9 944.5
06/05 01:00 24.6 98 22.06 24.3 0 0 1013.1 0 47.5 46.3 92.7 245.5 275.4 956.4
06/05 00:50 24.5 97 21.71 24 0 0 1013.1 0 46.8 45.6 91.1 241.1 269.9 937.4
06/05 00:40 24.6 96 21.61 23.9 0 0 1013.1 0 46.6 45.4 90.4 239.4 267.9 930.4
06/05 00:30 24.9 96 21.97 24.2 0 0 1013.1 0 47.3 45.9 91.9 243.3 272.7 947.4
06/05 00:20 24.8 96 21.85 24.1 0 0 1013.1 0 47.1 45.8 91.4 242.0 271.1 941.7
06/05 00:10 25 94 21.64 23.9 0 0 1013.1 0 46.6 45.2 90.1 238.5 266.9 927.1
06/05 00:00 25.3 93 21.77 24.1 2 6 1013.1 0 46.8 45.3 90.4 239.3 268.0 930.8
05/05 23:50 25.1 94 21.76 24 4 6 1013.1 0 46.8 45.4 90.6 239.8 268.5 932.8
05/05 23:40 25.4 92 21.66 24.1 2 2 1013.1 0 46.6 45.0 89.7 237.5 265.8 923.3
05/05 23:30 25.6 92 21.9 24.2 2 4 1013.1 0 47.1 45.4 90.7 240.1 269.0 934.5
05/05 23:20 25.7 91 21.79 24.1 2 2 1013.1 0 46.8 45.1 90.0 238.3 266.8 927.0
05/05 23:10 25.8 91 21.91 24.2 2 4 1013.1 0 47.1 45.3 90.5 239.6 268.4 932.6
05/05 23:00 26 89 21.67 24 4 6 1013.1 0 46.5 44.7 89.1 235.8 263.8 916.5
05/05 22:50 25.9 90 21.79 24.1 4 6 1013.1 0 46.8 45.0 89.8 237.7 266.1 924.5
05/05 22:40 26 89 21.67 24 2 4 1013.1 0 46.5 44.7 89.1 235.8 263.8 916.5
05/05 22:30 26.3 87 21.54 24 2 4 1013.1 0 46.2 44.3 88.1 233.1 260.6 905.5
05/05 22:20 26.5 87 21.78 24.1 2 4 1013.1 0 46.7 44.7 89.0 235.6 263.8 916.5
05/05 22:10 26.5 85 21.28 23.9 0 0 1013.1 0 45.6 43.7 86.5 229.1 255.7 888.6
05/05 22:00 26.7 85 21.52 24 4 7 1013.1 0 46.1 44.1 87.5 231.6 258.9 899.6
05/05 21:50 26.8 83 21.13 23.8 4 4 1013.1 0 45.3 43.2 85.5 226.2 252.3 876.8
05/05 21:40 26.9 83 21.24 23.9 4 6 1013.1 0 45.5 43.4 85.9 227.3 253.7 881.7
05/05 21:30 26.9 82 20.99 23.6 4 9 1013.1 0 45.0 42.9 84.7 224.1 249.8 867.9
05/05 21:20 26.9 80 20.48 23.3 7 7 1013.1 0 43.9 41.9 82.2 217.6 241.8 840.1
05/05 21:10 26.9 76 19.45 22.3 6 7 1013.1 0 41.7 40.0 77.4 204.7 225.9 785.0
05/05 21:00 26 81 19.72 22.5 0 0 1013.1 0 42.4 40.9 79.6 210.5 232.8 808.9
05/05 20:50 26.1 80 19.59 22.5 0 0 1013.1 0 42.1 40.6 78.8 208.6 230.5 800.8
05/05 20:40 26.4 80 19.92 22.8 0 0 1013.1 0 42.8 41.1 80.1 211.9 234.7 815.3
05/05 20:30 26.6 81 20.39 23.1 0 0 1013.1 0 43.7 41.9 82.1 217.3 241.3 838.6
05/05 20:20 26.7 79 20 22.9 0 0 1013.1 0 42.9 41.1 80.1 212.1 235.0 816.4
05/05 20:10 26.9 77 19.71 22.5 0 0 1013.1 0 42.3 40.5 78.6 207.9 229.9 798.8
05/05 20:00 27.1 79 20.45 23.1 0 0 1013.1 0 43.8 41.8 81.9 216.6 240.7 836.3
05/05 19:50 27.3 74 19.36 22.4 0 0 1013.1 0 41.5 39.6 76.5 202.5 223.4 776.1
05/05 19:40 27.2 74 19.26 22.3 0 0 1013.1 0 41.3 39.5 76.2 201.5 222.1 771.9
05/05 19:30 27.4 75 19.73 22.6 0 0 1013.1 0 42.3 40.3 78.1 206.8 228.7 794.6
05/05 19:20 27.6 75 19.95 22.9 0 0 1013.1 0 42.7 40.6 79.0 209.0 231.4 804.1
05/05 19:10 27.9 73 19.74 22.6 0 0 1013.1 0 42.2 40.0 77.7 205.6 227.3 789.9
05/05 19:00 28.4 70 19.46 22.4 0 0 1013.1 0 41.6 39.3 75.9 200.8 221.6 770.2
05/05 18:50 28.8 68 19.32 22.5 0 0 1013.1 0 41.2 38.8 74.9 198.1 218.4 758.9
05/05 18:40 29.4 63 18.5 21.8 0 0 1013.1 0 39.5 37.1 70.6 186.9 204.8 711.7
05/05 18:30 29.9 59 17.8 21 0 0 1013.1 0 37.9 35.7 67.2 177.6 193.6 672.8
05/05 18:20 30.8 57 18.05 21.3 0 0 1013.1 0 38.4 35.7 67.5 178.4 194.8 677.1
05/05 18:10 31.4 53 17.33 20.9 2 2 1013.1 0 36.8 34.3 63.9 169.0 183.4 637.7
05/05 18:00 32 51 17.22 20.6 2 4 1013.1 0 36.5 33.9 63.0 166.6 180.5 627.7
05/05 17:50 32.3 48 16.47 20.2 4 4 1013.1 0 35.0 32.5 59.7 157.9 170.0 590.9
05/05 17:40 32.5 46 15.95 19.7 2 4 1013.1 0 33.9 31.6 57.5 152.0 162.8 566.0
05/05 17:30 32.8 46 16.21 19.7 6 11 1013.1 0 34.4 31.9 58.3 154.2 165.5 575.4
05/05 17:20 33 43 15.31 19.1 7 11 1013.1 0 32.5 30.4 54.7 144.5 153.7 534.2
05/05 17:10 33.3 44 15.92 19.7 4 4 1013.1 0 33.7 31.3 56.8 150.2 160.8 558.9
05/05 17:00 33.4 44 16 19.5 4 7 1013.1 0 33.9 31.4 57.1 150.8 161.6 561.8
05/05 16:50 33.8 42 15.6 19.4 2 4 1013.1 0 33.0 30.6 55.3 146.0 155.8 541.4
05/05 16:40 33.6 42 15.44 19.2 6 7 1013.1 0 32.7 30.4 54.8 144.7 154.2 535.8
05/05 16:30 33.7 40 14.78 18.6 7 17 1013.1 0 31.4 29.4 52.2 137.9 145.8 506.8
05/05 16:20 33.8 42 15.6 19.4 6 7 1013.1 0 33.0 30.6 55.3 146.0 155.8 541.4
05/05 16:10 33.3 42 15.2 19 7 11 1013.1 0 32.2 30.2 54.1 142.8 151.8 527.4
05/05 16:00 33.6 43 15.81 19.3 7 13 1013.1 0 33.5 31.0 56.2 148.5 158.8 552.0
05/05 15:50 33.8 41 15.23 19 7 11 1013.1 0 32.3 30.0 53.9 142.3 151.2 525.4
05/05 15:40 33.8 43 15.97 19.8 11 15 1013.1 0 33.8 31.2 56.7 149.8 160.4 557.6
05/05 15:30 33.5 43 15.72 19.2 9 17 1013.1 0 33.3 30.9 55.9 147.8 157.9 548.7
05/05 15:20 33.8 42 15.6 19.4 6 13 1013.1 0 33.0 30.6 55.3 146.0 155.8 541.4
05/05 15:10 33.9 41 15.31 19.1 6 9 1013.1 0 32.4 30.1 54.1 142.9 152.0 528.2
05/05 15:00 34.1 42 15.85 19.7 7 17 1013.1 0 33.5 30.9 56.0 148.0 158.3 550.3
05/05 14:50 33.6 41 15.07 18.9 7 13 1013.1 0 32.0 29.9 53.4 141.0 149.6 519.8
05/05 14:40 33.8 43 15.97 19.8 7 9 1013.1 0 33.8 31.2 56.7 149.8 160.4 557.6
05/05 14:30 33.2 45 16.2 19.7 7 15 1013.1 0 34.3 31.8 58.0 153.3 164.6 572.1
05/05 14:20 33.8 44 16.34 20.2 6 9 1013.1 0 34.6 31.8 58.1 153.6 165.1 574.0
05/05 14:10 33.1 44 15.75 19.5 9 11 1013.1 0 33.4 31.1 56.3 148.8 159.0 552.8
05/05 14:00 33.2 45 16.2 20 9 19 1013.1 0 34.3 31.8 58.0 153.3 164.6 572.1
05/05 13:50 33.4 46 16.73 20.2 6 7 1013.1 0 35.4 32.5 59.9 158.4 170.9 594.4
05/05 13:40 33.5 46 16.82 20.6 6 7 1013.1 0 35.6 32.6 60.2 159.2 171.9 597.7
05/05 13:30 33.1 47 16.83 20.6 9 20 1013.1 0 35.6 32.8 60.6 160.1 172.9 601.2
05/05 13:20 32.9 47 16.65 20.4 6 7 1013.1 0 35.3 32.6 60.0 158.6 171.0 594.5
05/05 13:10 32.8 50 17.62 21 6 7 1013.1 0 37.3 34.2 64.0 169.2 184.0 639.8

Last Refresh: 06-May-2026 05:49:17

Bureau of Meteorology